LFKJ/AJA METAR and TAF weather

Enter ICAO airport designator
Station Type Date Time Source
LFKJ METAR 2021/05/10 02:00 UTC NOAA

LFKJ 100200Z AUTO 04006KT CAVOK 13/10 Q1012 NOSIG


Station Type Date Time Source
LFKJ Decoded METAR 2021/05/10 02:00 UTC NOAA

Ajaccio, France (LFKJ) 41-55N 008-48E 9M
May 09, 2021 - 10:00 PM EDT / 2021.05.10 0200 UTC
Wind: from the NE (040 degrees) at 7 MPH (6 KT):0
Visibility: greater than 7 mile(s):0
Temperature: 55 F (13 C)
Dew Point: 50 F (10 C)
Relative Humidity: 81%
Pressure (altimeter): 29.88 in. Hg (1012 hPa)
ob: LFKJ 100200Z AUTO 04006KT CAVOK 13/10 Q1012 NOSIG
cycle: 2

Station Type Date Time Source
LFKJ TAF 2021/05/09 21:42 UTC NOAA

TAF LFKJ 092000Z 0921/1021 05005KT CAVOK
BECMG 1008/1010 23010KT
BECMG 1019/1021 VRB05KT FEW040 BKN110

Example: see airport list